sensor_id;sensor_type;location;lat;lon;timestamp;P1;durP1;ratioP1;P2;durP2;ratioP2
15921;SDS011;8060;50.948;3.146;2022-12-29T08:58:54;20.17;;;3.13;;
15921;SDS011;8060;50.948;3.146;2022-12-29T09:01:22;23.93;;;3.33;;
15921;SDS011;8060;50.948;3.146;2022-12-29T09:03:51;19.37;;;3.53;;
15921;SDS011;8060;50.948;3.146;2022-12-29T09:06:40;21.90;;;2.97;;
15921;SDS011;8060;50.948;3.146;2022-12-29T09:09:08;17.77;;;2.93;;
15921;SDS011;8060;50.948;3.146;2022-12-29T09:20:24;24.43;;;3.67;;
15921;SDS011;8060;50.948;3.146;2022-12-29T09:22:52;29.13;;;6.83;;
15921;SDS011;8060;50.948;3.146;2022-12-29T09:25:21;29.70;;;3.40;;
15921;SDS011;8060;50.948;3.146;2022-12-29T09:27:51;24.77;;;3.50;;
15921;SDS011;8060;50.948;3.146;2022-12-29T09:30:20;22.80;;;4.10;;
15921;SDS011;8060;50.948;3.146;2022-12-29T09:32:50;22.43;;;3.60;;
15921;SDS011;8060;50.948;3.146;2022-12-29T09:35:20;17.70;;;3.00;;
15921;SDS011;8060;50.948;3.146;2022-12-29T09:37:50;23.23;;;4.07;;
15921;SDS011;8060;50.948;3.146;2022-12-29T09:40:24;20.40;;;3.17;;
15921;SDS011;8060;50.948;3.146;2022-12-29T09:45:51;20.17;;;3.40;;
15921;SDS011;8060;50.948;3.146;2022-12-29T09:48:27;19.30;;;3.77;;
15921;SDS011;8060;50.948;3.146;2022-12-29T09:50:59;21.23;;;3.20;;
15921;SDS011;8060;50.948;3.146;2022-12-29T09:53:32;20.33;;;2.93;;
15921;SDS011;8060;50.948;3.146;2022-12-29T09:56:04;25.93;;;3.50;;
15921;SDS011;8060;50.948;3.146;2022-12-29T09:58:39;16.93;;;2.80;;
15921;SDS011;8060;50.948;3.146;2022-12-29T10:01:14;23.53;;;4.07;;
15921;SDS011;8060;50.948;3.146;2022-12-29T10:03:54;24.77;;;3.20;;
15921;SDS011;8060;50.948;3.146;2022-12-29T10:06:24;18.00;;;3.40;;
15921;SDS011;8060;50.948;3.146;2022-12-29T10:09:02;24.70;;;3.73;;
15921;SDS011;8060;50.948;3.146;2022-12-29T10:11:46;27.37;;;3.20;;
15921;SDS011;8060;50.948;3.146;2022-12-29T10:14:30;15.43;;;2.90;;
15921;SDS011;8060;50.948;3.146;2022-12-29T10:17:08;16.50;;;2.83;;
15921;SDS011;8060;50.948;3.146;2022-12-29T10:19:53;23.20;;;3.90;;
15921;SDS011;8060;50.948;3.146;2022-12-29T10:22:32;20.33;;;3.33;;
15921;SDS011;8060;50.948;3.146;2022-12-29T10:25:15;14.67;;;2.27;;
15921;SDS011;8060;50.948;3.146;2022-12-29T10:27:47;12.20;;;2.20;;
15921;SDS011;8060;50.948;3.146;2022-12-29T10:30:16;9.30;;;1.93;;
15921;SDS011;8060;50.948;3.146;2022-12-29T10:32:46;10.20;;;1.73;;
15921;SDS011;8060;50.948;3.146;2022-12-29T10:35:18;11.27;;;1.97;;
15921;SDS011;8060;50.948;3.146;2022-12-29T10:37:51;12.87;;;1.93;;
15921;SDS011;8060;50.948;3.146;2022-12-29T10:40:27;13.83;;;2.40;;
15921;SDS011;8060;50.948;3.146;2022-12-29T10:43:00;10.63;;;1.80;;
15921;SDS011;8060;50.948;3.146;2022-12-29T10:45:46;15.10;;;2.00;;
15921;SDS011;8060;50.948;3.146;2022-12-29T10:48:17;10.00;;;1.93;;
15921;SDS011;8060;50.948;3.146;2022-12-29T10:50:57;12.63;;;1.90;;
15921;SDS011;8060;50.948;3.146;2022-12-29T10:53:30;16.00;;;3.00;;
15921;SDS011;8060;50.948;3.146;2022-12-29T10:56:04;16.57;;;2.73;;
15921;SDS011;8060;50.948;3.146;2022-12-29T10:58:42;15.30;;;2.50;;
15921;SDS011;8060;50.948;3.146;2022-12-29T11:01:15;13.47;;;2.30;;
15921;SDS011;8060;50.948;3.146;2022-12-29T11:03:50;12.70;;;2.40;;
15921;SDS011;8060;50.948;3.146;2022-12-29T11:06:27;21.67;;;3.80;;
15921;SDS011;8060;50.948;3.146;2022-12-29T11:08:57;15.60;;;3.20;;
15921;SDS011;8060;50.948;3.146;2022-12-29T11:15:17;13.23;;;2.27;;
15921;SDS011;8060;50.948;3.146;2022-12-29T11:17:46;13.00;;;3.03;;
15921;SDS011;8060;50.948;3.146;2022-12-29T11:20:19;19.53;;;3.03;;
15921;SDS011;8060;50.948;3.146;2022-12-29T11:22:55;16.20;;;2.33;;
15921;SDS011;8060;50.948;3.146;2022-12-29T11:25:24;21.90;;;3.63;;
15921;SDS011;8060;50.948;3.146;2022-12-29T11:27:56;14.33;;;2.87;;
15921;SDS011;8060;50.948;3.146;2022-12-29T11:30:28;22.23;;;3.13;;
15921;SDS011;8060;50.948;3.146;2022-12-29T11:32:57;20.90;;;2.90;;
15921;SDS011;8060;50.948;3.146;2022-12-29T11:35:30;20.17;;;3.93;;
15921;SDS011;8060;50.948;3.146;2022-12-29T11:38:01;20.37;;;3.53;;
15921;SDS011;8060;50.948;3.146;2022-12-29T11:40:30;17.90;;;3.53;;
15921;SDS011;8060;50.948;3.146;2022-12-29T11:43:00;14.07;;;2.83;;
15921;SDS011;8060;50.948;3.146;2022-12-29T11:45:31;16.13;;;2.70;;
15921;SDS011;8060;50.948;3.146;2022-12-29T11:48:06;20.13;;;2.83;;
15921;SDS011;8060;50.948;3.146;2022-12-29T11:50:37;21.77;;;3.17;;
15921;SDS011;8060;50.948;3.146;2022-12-29T11:53:13;21.40;;;3.00;;
15921;SDS011;8060;50.948;3.146;2022-12-29T11:55:50;22.30;;;3.60;;
15921;SDS011;8060;50.948;3.146;2022-12-29T11:58:20;18.37;;;2.63;;
15921;SDS011;8060;50.948;3.146;2022-12-29T12:00:49;15.23;;;2.47;;
15921;SDS011;8060;50.948;3.146;2022-12-29T12:03:19;12.13;;;2.53;;
15921;SDS011;8060;50.948;3.146;2022-12-29T12:05:51;14.27;;;2.40;;
15921;SDS011;8060;50.948;3.146;2022-12-29T12:08:26;9.17;;;1.67;;
15921;SDS011;8060;50.948;3.146;2022-12-29T12:11:04;12.17;;;2.07;;
15921;SDS011;8060;50.948;3.146;2022-12-29T12:13:39;11.53;;;2.20;;
15921;SDS011;8060;50.948;3.146;2022-12-29T12:16:14;9.70;;;1.73;;
15921;SDS011;8060;50.948;3.146;2022-12-29T12:18:45;13.10;;;2.83;;
15921;SDS011;8060;50.948;3.146;2022-12-29T12:21:20;10.17;;;1.73;;
15921;SDS011;8060;50.948;3.146;2022-12-29T12:23:56;7.87;;;1.43;;
15921;SDS011;8060;50.948;3.146;2022-12-29T12:26:34;8.30;;;1.67;;
15921;SDS011;8060;50.948;3.146;2022-12-29T12:29:08;12.47;;;1.93;;
15921;SDS011;8060;50.948;3.146;2022-12-29T12:31:44;10.73;;;2.17;;
15921;SDS011;8060;50.948;3.146;2022-12-29T12:34:17;9.20;;;1.97;;
15921;SDS011;8060;50.948;3.146;2022-12-29T12:36:58;13.50;;;3.03;;
15921;SDS011;8060;50.948;3.146;2022-12-29T12:39:40;8.53;;;2.03;;
15921;SDS011;8060;50.948;3.146;2022-12-29T12:42:24;10.20;;;1.67;;
15921;SDS011;8060;50.948;3.146;2022-12-29T12:45:04;14.07;;;2.30;;
15921;SDS011;8060;50.948;3.146;2022-12-29T12:47:52;10.00;;;2.20;;
15921;SDS011;8060;50.948;3.146;2022-12-29T12:50:35;8.20;;;1.70;;
15921;SDS011;8060;50.948;3.146;2022-12-29T12:53:17;10.83;;;1.50;;
15921;SDS011;8060;50.948;3.146;2022-12-29T12:55:58;9.17;;;1.63;;
15921;SDS011;8060;50.948;3.146;2022-12-29T12:58:40;7.67;;;1.93;;
15921;SDS011;8060;50.948;3.146;2022-12-29T13:01:20;7.20;;;1.03;;
15921;SDS011;8060;50.948;3.146;2022-12-29T13:04:04;6.07;;;1.17;;
15921;SDS011;8060;50.948;3.146;2022-12-29T13:06:49;7.27;;;1.30;;
15921;SDS011;8060;50.948;3.146;2022-12-29T13:09:28;4.47;;;1.13;;
15921;SDS011;8060;50.948;3.146;2022-12-29T13:12:10;6.70;;;0.97;;
15921;SDS011;8060;50.948;3.146;2022-12-29T13:14:49;10.17;;;1.10;;
15921;SDS011;8060;50.948;3.146;2022-12-29T13:17:26;8.27;;;1.30;;
15921;SDS011;8060;50.948;3.146;2022-12-29T13:20:00;8.73;;;1.67;;
15921;SDS011;8060;50.948;3.146;2022-12-29T13:22:37;8.93;;;1.23;;
15921;SDS011;8060;50.948;3.146;2022-12-29T13:25:17;7.10;;;1.20;;
15921;SDS011;8060;50.948;3.146;2022-12-29T13:27:55;7.73;;;1.30;;
15921;SDS011;8060;50.948;3.146;2022-12-29T13:30:29;5.27;;;1.20;;
15921;SDS011;8060;50.948;3.146;2022-12-29T13:33:03;7.57;;;1.13;;
15921;SDS011;8060;50.948;3.146;2022-12-29T13:35:53;5.53;;;1.60;;
15921;SDS011;8060;50.948;3.146;2022-12-29T13:38:29;10.10;;;1.50;;
15921;SDS011;8060;50.948;3.146;2022-12-29T13:41:02;7.27;;;1.30;;
15921;SDS011;8060;50.948;3.146;2022-12-29T13:43:34;7.13;;;1.30;;
15921;SDS011;8060;50.948;3.146;2022-12-29T13:46:09;9.43;;;1.40;;
15921;SDS011;8060;50.948;3.146;2022-12-29T13:48:41;5.97;;;1.30;;
15921;SDS011;8060;50.948;3.146;2022-12-29T13:51:15;6.40;;;1.23;;
15921;SDS011;8060;50.948;3.146;2022-12-29T13:53:56;10.93;;;1.43;;
15921;SDS011;8060;50.948;3.146;2022-12-29T13:56:33;7.23;;;1.47;;
15921;SDS011;8060;50.948;3.146;2022-12-29T13:59:08;4.60;;;1.23;;
15921;SDS011;8060;50.948;3.146;2022-12-29T14:01:46;6.33;;;1.20;;
15921;SDS011;8060;50.948;3.146;2022-12-29T14:04:23;6.53;;;1.50;;
15921;SDS011;8060;50.948;3.146;2022-12-29T14:07:01;9.70;;;1.40;;
15921;SDS011;8060;50.948;3.146;2022-12-29T14:09:41;7.57;;;1.37;;
15921;SDS011;8060;50.948;3.146;2022-12-29T14:12:19;9.07;;;1.63;;
15921;SDS011;8060;50.948;3.146;2022-12-29T14:15:13;9.00;;;1.37;;
15921;SDS011;8060;50.948;3.146;2022-12-29T14:17:59;7.53;;;2.00;;
15921;SDS011;8060;50.948;3.146;2022-12-29T14:20:32;10.90;;;1.90;;
15921;SDS011;8060;50.948;3.146;2022-12-29T14:23:14;8.20;;;1.80;;
15921;SDS011;8060;50.948;3.146;2022-12-29T14:25:54;8.93;;;1.60;;
15921;SDS011;8060;50.948;3.146;2022-12-29T14:28:44;9.97;;;1.57;;
15921;SDS011;8060;50.948;3.146;2022-12-29T14:52:42;14.83;;;2.33;;
15921;SDS011;8060;50.948;3.146;2022-12-29T14:55:36;9.70;;;1.60;;
